Time;durP1;ratioP1;P1;durP2;ratioP2;P2;SDS_P1;SDS_P2;PMS_P1;PMS_P2;Temp;Humidity;BMP_temperature;BMP_pressure;BME280_temperature;BME280_humidity;BME280_pressure;Samples;Min_cycle;Max_cycle;Signal;HPM_P1;HPM_P2
2023/02/10 05:32:33;;;;;;;33.80;20.60;;;8.60;76.60;;;;;;4916260;29;20052;-75
2023/02/10 05:34:59;;;;;;;30.33;19.85;;;8.60;76.30;;;;;;4920219;29;20070;-76
2023/02/10 05:37:24;;;;;;;35.90;19.80;;;8.50;76.00;;;;;;4907487;29;20029;-76
2023/02/10 05:39:50;;;;;;;32.15;19.52;;;8.40;76.90;;;;;;4903570;29;20044;-77
2023/02/10 05:42:15;;;;;;;33.72;19.80;;;8.60;76.80;;;;;;4920801;29;20028;-76
2023/02/10 05:44:41;;;;;;;32.17;19.23;;;8.60;76.60;;;;;;4922486;29;20107;-76
2023/02/10 05:47:07;;;;;;;37.05;20.88;;;8.60;76.50;;;;;;4909508;29;20045;-78
2023/02/10 05:49:32;;;;;;;38.75;20.45;;;8.60;76.40;;;;;;4903570;29;20540;-76
2023/02/10 05:51:58;;;;;;;30.17;19.02;;;8.60;76.60;;;;;;4903716;29;20518;-76
2023/02/10 05:54:24;;;;;;;40.67;21.08;;;8.60;76.40;;;;;;4904544;29;20037;-75
2023/02/10 05:56:50;;;;;;;31.75;20.08;;;8.60;76.30;;;;;;4921562;29;20086;-75
2023/02/10 05:59:16;;;;;;;44.72;24.00;;;8.70;76.30;;;;;;4917904;29;20394;-76
2023/02/10 06:01:42;;;;;;;38.42;21.25;;;8.60;76.30;;;;;;4913253;29;20020;-76
2023/02/10 06:04:07;;;;;;;37.78;21.88;;;8.70;76.30;;;;;;4928584;29;20044;-76
2023/02/10 06:06:33;;;;;;;46.17;24.13;;;8.60;76.30;;;;;;4933728;29;20024;-76
2023/02/10 06:08:59;;;;;;;32.88;21.27;;;8.60;76.30;;;;;;4922369;29;20058;-76
2023/02/10 06:11:24;;;;;;;41.28;22.30;;;8.60;76.30;;;;;;4913519;29;20061;-76
2023/02/10 06:13:50;;;;;;;36.40;21.98;;;8.50;76.50;;;;;;4932562;29;20039;-76
2023/02/10 06:16:16;;;;;;;36.58;21.30;;;8.50;76.60;;;;;;4917700;29;20132;-76
2023/02/10 06:18:42;;;;;;;37.40;24.15;;;8.50;76.50;;;;;;4903078;29;20057;-76
2023/02/10 06:21:08;;;;;;;40.88;22.23;;;8.50;76.50;;;;;;4917538;29;20496;-76
2023/02/10 06:23:34;;;;;;;35.10;21.63;;;8.50;76.70;;;;;;4910383;29;20032;-76
2023/02/10 06:26:00;;;;;;;36.58;20.73;;;8.50;76.80;;;;;;4919528;29;20024;-77
2023/02/10 06:28:27;;;;;;;39.45;22.25;;;8.50;76.70;;;;;;4912772;29;20039;-80
2023/02/10 06:30:53;;;;;;;35.72;23.00;;;8.50;76.60;;;;;;4915549;29;20075;-81
2023/02/10 06:33:39;;;;;;;38.28;21.55;;;8.60;76.40;;;;;;4917427;29;20070;-80
2023/02/10 06:36:07;;;;;;;38.20;21.30;;;8.60;76.40;;;;;;4903233;29;20083;-80
2023/02/10 06:38:34;;;;;;;37.85;21.10;;;8.60;76.10;;;;;;4939675;29;20035;-81
2023/02/10 06:41:00;;;;;;;34.40;20.15;;;8.60;76.00;;;;;;4931254;29;20043;-80
2023/02/10 06:43:25;;;;;;;37.45;20.70;;;8.70;76.00;;;;;;4902881;29;20036;-80
2023/02/10 06:45:51;;;;;;;34.33;20.15;;;8.70;76.00;;;;;;4911532;29;20099;-80
2023/02/10 06:48:17;;;;;;;33.53;19.90;;;8.70;76.10;;;;;;4930066;29;20028;-80
2023/02/10 06:50:43;;;;;;;34.47;20.23;;;8.60;76.20;;;;;;4927547;29;20024;-80
2023/02/10 06:53:08;;;;;;;36.25;20.02;;;8.50;76.50;;;;;;4927532;29;20034;-80
2023/02/10 06:55:34;;;;;;;35.45;20.50;;;8.60;76.40;;;;;;4928421;29;20166;-80
2023/02/10 06:58:01;;;;;;;34.53;19.10;;;8.60;76.30;;;;;;4919292;29;20028;-80
2023/02/10 07:00:27;;;;;;;38.42;21.00;;;8.60;76.30;;;;;;4921227;29;20032;-80
2023/02/10 07:02:53;;;;;;;35.00;20.38;;;8.70;76.20;;;;;;4902925;29;20071;-80
2023/02/10 07:05:18;;;;;;;32.42;19.65;;;8.70;76.00;;;;;;4917232;29;20484;-80
2023/02/10 07:07:47;;;;;;;34.90;20.33;;;8.60;76.20;;;;;;4904354;29;20047;-80
2023/02/10 07:10:13;;;;;;;37.75;20.90;;;8.60;76.20;;;;;;4919437;29;20033;-80
2023/02/10 07:12:39;;;;;;;36.90;20.88;;;8.60;76.10;;;;;;4932084;29;20025;-80
2023/02/10 07:15:05;;;;;;;36.28;20.25;;;8.60;76.40;;;;;;4902044;29;20424;-80
2023/02/10 07:17:31;;;;;;;37.08;20.92;;;8.50;76.40;;;;;;4918100;29;20021;-80
2023/02/10 07:19:56;;;;;;;32.50;18.98;;;8.60;76.40;;;;;;4901980;29;20096;-80
2023/02/10 07:22:22;;;;;;;33.67;20.70;;;8.60;76.50;;;;;;4910015;29;20083;-81
2023/02/10 07:24:48;;;;;;;30.75;19.20;;;8.60;76.40;;;;;;4919175;29;20032;-80
2023/02/10 07:27:14;;;;;;;40.78;19.73;;;8.50;76.60;;;;;;4917859;29;20040;-80
2023/02/10 07:29:40;;;;;;;34.15;19.13;;;8.60;76.40;;;;;;4919475;29;20040;-80
2023/02/10 07:32:05;;;;;;;37.13;21.17;;;8.70;76.20;;;;;;4920340;29;20063;-79
2023/02/10 07:34:33;;;;;;;34.55;19.23;;;8.70;76.10;;;;;;4920664;29;20032;-79
2023/02/10 07:37:00;;;;;;;34.85;19.88;;;8.60;76.10;;;;;;4917734;29;20481;-79
2023/02/10 07:39:26;;;;;;;40.70;19.83;;;8.60;76.10;;;;;;4906814;29;20127;-79
2023/02/10 07:41:52;;;;;;;38.88;20.85;;;8.50;76.40;;;;;;4920561;29;20086;-79
2023/02/10 07:44:19;;;;;;;41.05;18.58;;;8.60;76.40;;;;;;4920416;29;20036;-79
2023/02/10 07:46:44;;;;;;;35.92;19.95;;;8.50;76.60;;;;;;4917207;29;20560;-79
2023/02/10 07:49:10;;;;;;;33.42;19.70;;;8.50;76.80;;;;;;4918814;29;20063;-80
2023/02/10 07:51:36;;;;;;;29.85;18.88;;;8.50;77.00;;;;;;4934423;29;20085;-79
2023/02/10 07:54:02;;;;;;;33.70;19.38;;;8.50;76.90;;;;;;4902335;29;20075;-79
2023/02/10 07:56:28;;;;;;;35.33;18.58;;;8.50;77.00;;;;;;4918630;29;20036;-79
2023/02/10 07:58:53;;;;;;;37.45;17.83;;;8.50;76.80;;;;;;4918044;29;20032;-79
2023/02/10 08:01:19;;;;;;;33.90;18.02;;;8.50;76.80;;;;;;4920238;29;20101;-78
2023/02/10 08:03:44;;;;;;;37.10;19.90;;;8.60;76.80;;;;;;4920081;29;20047;-78
2023/02/10 08:06:10;;;;;;;29.08;17.40;;;8.60;76.60;;;;;;4918180;29;20563;-80
2023/02/10 08:08:36;;;;;;;35.08;19.67;;;8.70;76.50;;;;;;4919056;29;20107;-79
2023/02/10 08:11:05;;;;;;;31.95;17.90;;;8.80;76.30;;;;;;4919013;29;20079;-79
2023/02/10 08:13:32;;;;;;;38.33;19.85;;;8.70;76.30;;;;;;4919420;29;20028;-78
2023/02/10 08:15:58;;;;;;;35.22;19.42;;;8.70;76.30;;;;;;4909712;29;20115;-79
2023/02/10 08:18:23;;;;;;;34.72;20.58;;;8.80;76.30;;;;;;4919706;29;20063;-79
2023/02/10 08:20:49;;;;;;;33.30;19.35;;;8.80;76.20;;;;;;4917224;29;20153;-79
2023/02/10 08:23:17;;;;;;;40.03;20.80;;;8.80;76.20;;;;;;4916971;29;20040;-79
2023/02/10 08:25:43;;;;;;;38.55;21.83;;;8.90;76.10;;;;;;4919122;29;20055;-78
2023/02/10 08:28:09;;;;;;;42.20;23.10;;;8.90;76.00;;;;;;4911699;29;20762;-79
2023/02/10 08:30:35;;;;;;;43.08;24.55;;;8.80;75.90;;;;;;4919205;29;20048;-79
2023/02/10 08:33:00;;;;;;;39.97;23.10;;;8.80;76.00;;;;;;4919585;29;20044;-78
2023/02/10 08:35:26;;;;;;;35.33;23.02;;;8.70;76.30;;;;;;4906028;29;20520;-79
2023/02/10 08:37:52;;;;;;;33.53;21.40;;;8.70;76.40;;;;;;4905026;29;20485;-79
2023/02/10 08:40:17;;;;;;;35.38;22.23;;;8.80;76.70;;;;;;4915374;29;20040;-79
2023/02/10 08:42:43;;;;;;;35.60;21.33;;;8.80;76.70;;;;;;4903325;29;20032;-79
2023/02/10 08:45:09;;;;;;;36.83;21.40;;;8.90;76.50;;;;;;4928343;29;20027;-79
2023/02/10 08:47:35;;;;;;;44.53;22.33;;;9.00;76.10;;;;;;4931933;29;20580;-78
2023/02/10 08:50:01;;;;;;;33.72;19.38;;;9.10;76.00;;;;;;4918701;29;20832;-79
2023/02/10 08:52:27;;;;;;;35.83;20.42;;;9.10;76.10;;;;;;4919412;29;20043;-79
2023/02/10 08:54:53;;;;;;;35.75;20.60;;;9.20;75.90;;;;;;4919253;29;20404;-79
2023/02/10 08:57:18;;;;;;;35.83;20.60;;;9.30;75.50;;;;;;4917805;29;20032;-79
2023/02/10 08:59:44;;;;;;;37.95;19.75;;;9.30;75.30;;;;;;4919213;29;20433;-79
2023/02/10 09:02:13;;;;;;;33.50;18.98;;;9.40;75.00;;;;;;4902604;29;20033;-79
2023/02/10 09:04:40;;;;;;;31.67;18.90;;;9.50;74.90;;;;;;4914388;29;20064;-79
2023/02/10 09:07:06;;;;;;;34.08;19.52;;;9.70;74.70;;;;;;4900220;29;20028;-79
2023/02/10 09:09:36;;;;;;;35.38;19.05;;;9.70;74.60;;;;;;4900057;29;20028;-79
2023/02/10 09:12:03;;;;;;;34.60;20.48;;;9.80;74.20;;;;;;4915725;29;20051;-79
2023/02/10 09:14:30;;;;;;;33.92;20.10;;;10.00;74.10;;;;;;4919149;29;20038;-79
2023/02/10 09:16:56;;;;;;;33.75;19.35;;;10.10;73.60;;;;;;4919273;29;20488;-78
2023/02/10 09:19:23;;;;;;;31.23;18.77;;;10.30;73.50;;;;;;4915846;29;20095;-78
2023/02/10 09:21:49;;;;;;;33.10;19.30;;;10.50;73.10;;;;;;4917017;29;20515;-79
2023/02/10 09:24:16;;;;;;;37.95;19.35;;;10.60;72.50;;;;;;4918374;29;20455;-79
2023/02/10 09:26:42;;;;;;;29.90;19.38;;;10.60;72.60;;;;;;4906248;29;20036;-78
2023/02/10 09:29:08;;;;;;;30.38;18.38;;;10.60;72.50;;;;;;4899872;29;20029;-79
2023/02/10 09:31:34;;;;;;;32.88;18.77;;;10.70;72.50;;;;;;4899905;29;20049;-79
2023/02/10 09:34:00;;;;;;;29.55;17.60;;;10.80;72.30;;;;;;4900230;29;20036;-79
2023/02/10 09:36:26;;;;;;;26.98;16.88;;;10.90;71.90;;;;;;4914443;29;20029;-79
2023/02/10 09:38:51;;;;;;;33.13;18.50;;;10.90;71.70;;;;;;4906999;29;20516;-79
2023/02/10 09:41:35;;;;;;;27.42;17.63;;;10.90;71.80;;;;;;4903786;29;20041;-79
2023/02/10 09:44:35;;;;;;;29.60;17.13;;;10.90;71.70;;;;;;4914900;29;20025;-79
2023/02/10 09:47:23;;;;;;;33.25;18.42;;;10.90;71.80;;;;;;4888897;29;20073;-79
2023/02/10 09:50:04;;;;;;;26.15;16.38;;;10.90;71.90;;;;;;4899883;29;20032;-79
2023/02/10 09:52:41;;;;;;;27.05;17.48;;;10.80;71.80;;;;;;4900124;29;20528;-79
2023/02/10 09:55:22;;;;;;;26.85;17.38;;;10.90;71.70;;;;;;4906921;29;20032;-79
2023/02/10 09:57:54;;;;;;;29.58;17.17;;;10.90;71.80;;;;;;4902580;29;20124;-79
2023/02/10 10:00:35;;;;;;;27.17;16.38;;;10.90;71.90;;;;;;4901372;29;20135;-79
2023/02/10 10:03:04;;;;;;;27.48;16.35;;;10.90;71.70;;;;;;4919010;29;20032;-79
2023/02/10 10:06:05;;;;;;;27.75;16.33;;;11.00;71.50;;;;;;4903223;29;20449;-78
2023/02/10 10:08:55;;;;;;;35.05;16.58;;;11.10;71.30;;;;;;4876320;29;20041;-76
2023/02/10 10:11:26;;;;;;;28.38;16.55;;;11.20;71.20;;;;;;4927130;29;20070;-79
2023/02/10 10:13:54;;;;;;;29.65;16.80;;;11.30;71.10;;;;;;4938392;29;20035;-79
2023/02/10 10:16:24;;;;;;;29.45;17.15;;;11.50;70.70;;;;;;4933130;29;20093;-79
2023/02/10 10:19:20;;;;;;;28.85;18.13;;;11.60;70.30;;;;;;4903387;29;20064;-78
2023/02/10 10:22:25;;;;;;;24.95;17.30;;;11.60;70.20;;;;;;4909842;29;20089;-79
2023/02/10 10:25:09;;;;;;;27.20;16.45;;;11.70;70.00;;;;;;4917618;29;20040;-79
2023/02/10 10:27:51;;;;;;;27.23;17.38;;;11.70;70.00;;;;;;4917562;29;20120;-76
2023/02/10 10:30:20;;;;;;;26.25;16.45;;;11.70;70.20;;;;;;4910492;29;20504;-79
2023/02/10 10:32:58;;;;;;;27.90;16.67;;;11.80;69.90;;;;;;4903180;29;20028;-79
2023/02/10 10:35:42;;;;;;;27.30;17.67;;;11.80;69.90;;;;;;4902816;29;20493;-78
2023/02/10 10:38:15;;;;;;;28.35;15.57;;;11.90;69.60;;;;;;4904365;29;20043;-79
2023/02/10 10:40:45;;;;;;;24.25;15.25;;;12.10;69.20;;;;;;4918615;29;20631;-79
2023/02/10 10:43:20;;;;;;;24.27;16.27;;;12.10;68.80;;;;;;4917517;29;20485;-79
2023/02/10 10:45:52;;;;;;;23.13;15.70;;;12.20;68.90;;;;;;4916964;29;20045;-79
2023/02/10 10:48:25;;;;;;;24.67;15.88;;;12.20;68.80;;;;;;4902896;29;20021;-79
2023/02/10 10:50:51;;;;;;;27.48;16.33;;;12.20;69.00;;;;;;4916907;29;20056;-79
2023/02/10 10:53:25;;;;;;;25.55;16.60;;;12.20;68.90;;;;;;4917171;29;20581;-79
2023/02/10 10:55:54;;;;;;;21.63;15.18;;;12.20;68.50;;;;;;4915199;29;20047;-76
2023/02/10 10:58:45;;;;;;;26.75;16.35;;;12.30;68.50;;;;;;4920486;29;20559;-76
2023/02/10 11:01:13;;;;;;;25.73;15.63;;;12.30;68.70;;;;;;4911144;29;20047;-79
2023/02/10 11:03:39;;;;;;;25.02;16.25;;;12.40;68.50;;;;;;4916814;29;20175;-79
2023/02/10 11:06:11;;;;;;;29.63;16.92;;;12.40;68.30;;;;;;4902518;29;20081;-79
2023/02/10 11:08:45;;;;;;;24.63;15.65;;;12.50;68.30;;;;;;4903182;29;20032;-79
2023/02/10 11:11:14;;;;;;;26.33;16.10;;;12.60;68.50;;;;;;4920147;29;20075;-79
2023/02/10 11:13:49;;;;;;;26.57;14.43;;;12.70;68.50;;;;;;4933526;29;20024;-79
2023/02/10 11:16:16;;;;;;;20.52;13.25;;;12.70;68.40;;;;;;4903237;29;20292;-79
2023/02/10 11:18:55;;;;;;;21.25;13.23;;;12.80;68.30;;;;;;4911547;29;20036;-78
2023/02/10 11:21:21;;;;;;;22.02;13.00;;;12.80;68.00;;;;;;4902029;29;20031;-79
2023/02/10 11:23:52;;;;;;;20.50;12.25;;;12.90;67.70;;;;;;4902166;29;20028;-79
2023/02/10 11:26:22;;;;;;;18.15;12.50;;;12.90;68.10;;;;;;4901760;29;20032;-76
2023/02/10 11:28:49;;;;;;;18.45;11.75;;;12.90;67.90;;;;;;4916671;29;20021;-78
2023/02/10 11:31:37;;;;;;;17.67;12.07;;;13.00;67.90;;;;;;4901459;29;20057;-76
2023/02/10 11:34:21;;;;;;;18.58;11.23;;;13.00;67.50;;;;;;4902037;29;20116;-79
2023/02/10 11:36:50;;;;;;;21.23;12.98;;;13.10;67.60;;;;;;4901941;29;20111;-79
2023/02/10 11:39:33;;;;;;;18.57;10.93;;;13.00;67.80;;;;;;4906574;29;20033;-78
2023/02/10 11:42:11;;;;;;;16.63;11.30;;;13.10;67.60;;;;;;4903037;29;20040;-78
2023/02/10 11:44:37;;;;;;;15.32;11.15;;;13.20;67.70;;;;;;4901727;29;20033;-80
2023/02/10 11:47:12;;;;;;;18.27;10.23;;;13.30;67.20;;;;;;4901737;29;20040;-81
2023/02/10 11:49:43;;;;;;;15.25;10.15;;;13.20;67.10;;;;;;4902965;29;20381;-81
2023/02/10 11:52:10;;;;;;;14.45;8.55;;;13.40;67.30;;;;;;4902593;29;20033;-78
2023/02/10 11:54:37;;;;;;;14.65;8.75;;;13.50;67.20;;;;;;4904320;29;20404;-79
2023/02/10 12:00:12;;;;;;;13.70;8.20;;;13.50;66.80;;;;;;4920673;29;20040;-81
2023/02/10 12:03:10;;;;;;;14.77;9.30;;;13.50;67.10;;;;;;4901141;29;20039;-81
2023/02/10 12:05:54;;;;;;;13.93;7.90;;;13.50;66.80;;;;;;4908203;29;20020;-80
2023/02/10 12:08:46;;;;;;;15.68;8.43;;;13.50;66.50;;;;;;4905626;29;20067;-82
2023/02/10 12:11:15;;;;;;;13.50;8.00;;;13.50;66.80;;;;;;4929235;29;20032;-81
2023/02/10 12:13:57;;;;;;;13.63;7.95;;;13.60;66.60;;;;;;4932267;29;20096;-82
2023/02/10 12:16:39;;;;;;;10.20;6.72;;;13.50;66.80;;;;;;4901470;29;20521;-81
2023/02/10 12:19:45;;;;;;;13.60;8.38;;;13.50;66.60;;;;;;4901505;29;20060;-79
2023/02/10 12:22:20;;;;;;;15.63;8.27;;;13.60;66.40;;;;;;4912298;29;20580;-81
2023/02/10 12:25:30;;;;;;;16.13;8.50;;;13.60;66.50;;;;;;4919518;29;20032;-81
2023/02/10 12:28:31;;;;;;;18.55;8.88;;;13.70;66.60;;;;;;4936623;29;20125;-82
2023/02/10 12:31:20;;;;;;;13.80;9.45;;;13.60;65.80;;;;;;4890076;29;20044;-79
2023/02/10 12:34:04;;;;;;;18.50;8.50;;;13.60;66.30;;;;;;4907693;29;20028;-78
2023/02/10 12:36:38;;;;;;;12.15;8.10;;;13.50;65.40;;;;;;4938377;28;20029;-78
2023/02/10 12:39:16;;;;;;;15.70;8.50;;;13.30;66.40;;;;;;4926294;29;20031;-78
2023/02/10 12:42:09;;;;;;;14.57;7.38;;;13.40;66.60;;;;;;4942291;29;20081;-78
2023/02/10 12:44:46;;;;;;;13.48;8.45;;;13.30;66.40;;;;;;4921770;29;20039;-79
2023/02/10 12:47:27;;;;;;;14.63;9.55;;;13.30;66.60;;;;;;4922406;29;20043;-78
2023/02/10 12:49:58;;;;;;;13.30;7.95;;;13.40;66.60;;;;;;4923806;29;20032;-79
2023/02/10 12:52:42;;;;;;;13.63;9.00;;;13.40;66.50;;;;;;4924724;29;20047;-78
2023/02/10 12:55:15;;;;;;;14.15;8.98;;;13.20;65.40;;;;;;4926246;29;20063;-78
2023/02/10 12:57:47;;;;;;;16.58;8.57;;;13.30;65.80;;;;;;4924998;29;20077;-78
2023/02/10 13:00:29;;;;;;;12.93;7.85;;;13.50;65.70;;;;;;4924021;29;20028;-79
2023/02/10 13:03:18;;;;;;;10.80;6.28;;;13.70;65.50;;;;;;4925485;29;20028;-78
2023/02/10 13:05:59;;;;;;;11.10;6.93;;;13.70;64.20;;;;;;4922590;29;20547;-79
2023/02/10 13:08:34;;;;;;;11.57;7.50;;;13.80;64.90;;;;;;4928195;29;20028;-79
2023/02/10 13:11:09;;;;;;;10.75;7.28;;;13.90;64.90;;;;;;4919963;29;20115;-79
2023/02/10 13:13:41;;;;;;;14.57;7.55;;;13.90;64.70;;;;;;4926153;29;20099;-79
2023/02/10 13:16:15;;;;;;;12.00;7.13;;;13.80;64.40;;;;;;4925991;29;20642;-79
2023/02/10 13:18:47;;;;;;;10.00;6.75;;;13.70;64.60;;;;;;4915008;29;20477;-78
2023/02/10 13:21:28;;;;;;;9.57;6.80;;;13.70;64.90;;;;;;4899900;29;20028;-79
2023/02/10 13:24:03;;;;;;;12.25;7.32;;;13.60;64.60;;;;;;4914889;29;20060;-78
2023/02/10 13:26:47;;;;;;;9.23;6.18;;;13.60;64.30;;;;;;4912226;29;20054;-78
2023/02/10 13:29:38;;;;;;;11.07;6.28;;;13.60;64.30;;;;;;4917133;29;20484;-79
2023/02/10 13:32:18;;;;;;;10.68;6.40;;;13.50;64.00;;;;;;4903322;29;20071;-77
2023/02/10 13:35:15;;;;;;;8.88;6.13;;;13.40;63.70;;;;;;4913816;29;20543;-78
2023/02/10 13:37:45;;;;;;;12.65;6.45;;;13.30;63.90;;;;;;4900790;29;20045;-77
2023/02/10 13:40:28;;;;;;;11.52;5.90;;;13.30;64.50;;;;;;4915013;29;20071;-79
2023/02/10 13:42:58;;;;;;;10.52;5.72;;;13.30;64.00;;;;;;4918757;29;20127;-77
2023/02/10 13:45:29;;;;;;;8.20;6.05;;;13.20;64.30;;;;;;4918888;29;20024;-80
2023/02/10 13:47:55;;;;;;;7.10;5.13;;;13.20;64.40;;;;;;4907376;29;20120;-79
2023/02/10 13:50:49;;;;;;;10.40;5.57;;;13.10;64.30;;;;;;4927526;29;20067;-78
2023/02/10 13:53:33;;;;;;;9.75;4.82;;;13.10;63.90;;;;;;4922423;29;20095;-78
2023/02/10 13:56:22;;;;;;;8.80;4.88;;;13.20;63.50;;;;;;4931124;29;20040;-78
2023/02/10 13:58:52;;;;;;;10.80;5.45;;;13.30;63.50;;;;;;4911518;29;20058;-78
2023/02/10 14:01:32;;;;;;;10.15;5.88;;;13.40;63.90;;;;;;4927315;29;20043;-79
2023/02/10 14:03:58;;;;;;;10.63;5.63;;;13.50;63.70;;;;;;4921804;29;20035;-78
2023/02/10 14:06:41;;;;;;;10.25;6.07;;;13.60;63.10;;;;;;4911877;29;20099;-78
2023/02/10 14:09:20;;;;;;;9.57;5.45;;;13.60;63.20;;;;;;4911913;29;20456;-78
2023/02/10 14:11:51;;;;;;;7.18;4.75;;;13.60;62.60;;;;;;4921766;29;20041;-78
2023/02/10 14:14:36;;;;;;;5.72;3.92;;;13.60;61.60;;;;;;4920691;29;20445;-79
2023/02/10 14:17:14;;;;;;;5.65;4.05;;;13.60;61.30;;;;;;4917051;29;20158;-78
2023/02/10 14:19:44;;;;;;;6.43;4.35;;;13.60;61.90;;;;;;4916382;29;20039;-79
2023/02/10 14:22:29;;;;;;;5.60;4.00;;;13.70;61.90;;;;;;4921827;29;20042;-78
2023/02/10 14:24:59;;;;;;;9.88;4.63;;;13.70;61.50;;;;;;4921578;29;20057;-78
2023/02/10 14:27:25;;;;;;;;;;;13.70;62.10;;;;;;4922452;29;20027;-78
2023/02/10 14:29:55;;;;;;;9.80;4.78;;;13.70;62.00;;;;;;4909378;29;19921;-79
2023/02/10 14:32:21;;;;;;;9.65;5.55;;;13.70;61.70;;;;;;4902644;29;20458;-79
2023/02/10 14:34:55;;;;;;;8.45;5.22;;;13.60;62.10;;;;;;4903101;29;20045;-79
2023/02/10 14:37:22;;;;;;;8.85;4.72;;;13.60;61.90;;;;;;4902924;29;20081;-78
2023/02/10 14:39:56;;;;;;;8.63;4.78;;;13.70;62.30;;;;;;4917251;29;20044;-79
2023/02/10 14:42:25;;;;;;;11.85;6.10;;;13.70;61.80;;;;;;4920893;29;20081;-76
2023/02/10 14:44:53;;;;;;;8.20;5.50;;;13.70;62.30;;;;;;4918967;29;20040;-79
2023/02/10 14:47:27;;;;;;;8.13;4.40;;;13.60;62.20;;;;;;4913453;29;20024;-78
2023/02/10 14:49:55;;;;;;;6.70;4.13;;;13.60;62.10;;;;;;4917731;29;20040;-80
2023/02/10 14:52:27;;;;;;;5.68;4.53;;;13.60;62.00;;;;;;4917073;29;20031;-78
2023/02/10 14:54:53;;;;;;;5.85;4.00;;;13.60;61.20;;;;;;4915986;29;20036;-78
2023/02/10 14:57:21;;;;;;;6.78;3.80;;;13.60;61.20;;;;;;4931899;29;20037;-78
2023/02/10 14:59:58;;;;;;;6.28;4.40;;;13.60;61.20;;;;;;4901360;29;20060;-78
2023/02/10 15:02:27;;;;;;;6.68;3.95;;;13.60;61.30;;;;;;4922220;29;20023;-78
2023/02/10 15:04:59;;;;;;;5.97;4.10;;;13.60;61.50;;;;;;4908498;29;20041;-78
2023/02/10 15:07:31;;;;;;;8.10;4.45;;;13.60;61.80;;;;;;4911426;29;20051;-79
2023/02/10 15:10:00;;;;;;;8.27;4.88;;;13.60;61.40;;;;;;4918196;29;20121;-80
2023/02/10 15:12:27;;;;;;;5.97;4.70;;;13.50;60.30;;;;;;4923998;29;20036;-79
2023/02/10 15:14:58;;;;;;;5.10;4.55;;;13.60;61.10;;;;;;4918861;29;20292;-81
2023/02/10 15:17:40;;;;;;;6.30;3.70;;;13.50;61.10;;;;;;4920739;29;20119;-82
2023/02/10 15:20:18;;;;;;;6.22;3.42;;;13.50;61.10;;;;;;4902401;29;20029;-77
2023/02/10 15:23:03;;;;;;;6.63;3.38;;;13.50;60.90;;;;;;4917610;29;20032;-77
2023/02/10 15:25:38;;;;;;;5.65;3.80;;;13.50;60.60;;;;;;4920160;29;20634;-77
2023/02/10 15:28:10;;;;;;;5.43;3.97;;;13.40;61.00;;;;;;4923706;29;20063;-78
2023/02/10 15:31:00;;;;;;;5.35;3.78;;;13.40;60.60;;;;;;4920390;29;20055;-78
2023/02/10 15:33:37;;;;;;;5.82;2.83;;;13.40;61.40;;;;;;4909085;29;20033;-78
2023/02/10 15:36:26;;;;;;;3.92;2.60;;;13.40;61.10;;;;;;4920126;29;20032;-78
2023/02/10 15:38:55;;;;;;;5.57;3.00;;;13.40;61.20;;;;;;4917241;29;20094;-78
2023/02/10 15:41:36;;;;;;;5.07;2.97;;;13.30;60.30;;;;;;4917432;29;20032;-79
2023/02/10 15:44:22;;;;;;;11.77;4.63;;;13.30;61.20;;;;;;4918486;29;20088;-78
2023/02/10 15:46:53;;;;;;;5.97;3.47;;;13.30;61.30;;;;;;4916626;29;20047;-78
2023/02/10 15:49:20;;;;;;;7.85;3.78;;;13.30;60.80;;;;;;4915761;29;20076;-77
2023/02/10 15:51:48;;;;;;;6.80;3.67;;;13.20;61.10;;;;;;4908100;29;20543;-78
2023/02/10 15:54:16;;;;;;;6.88;3.65;;;13.20;61.10;;;;;;4918988;29;20083;-78
2023/02/10 15:56:42;;;;;;;6.53;4.05;;;13.20;61.60;;;;;;4918600;29;20052;-78
2023/02/10 15:59:16;;;;;;;5.68;3.83;;;13.20;61.40;;;;;;4930515;29;20499;-78
2023/02/10 16:01:41;;;;;;;15.38;8.95;;;13.20;61.90;;;;;;4919718;29;20034;-78
2023/02/10 16:04:07;;;;;;;16.35;8.98;;;13.20;61.60;;;;;;4917672;29;20419;-78
2023/02/10 16:06:37;;;;;;;11.73;5.20;;;13.20;61.80;;;;;;4918903;29;20032;-78
2023/02/10 16:09:04;;;;;;;8.68;4.93;;;13.20;61.40;;;;;;4919611;29;20040;-78
2023/02/10 16:11:30;;;;;;;7.15;5.03;;;13.20;61.60;;;;;;4918288;29;20031;-78
2023/02/10 16:13:56;;;;;;;9.60;6.40;;;13.20;62.40;;;;;;4916750;29;20481;-78
2023/02/10 16:16:22;;;;;;;12.38;6.68;;;13.10;62.90;;;;;;4913977;29;20020;-78
2023/02/10 16:18:48;;;;;;;9.32;4.95;;;13.10;62.60;;;;;;4917111;29;20031;-78
2023/02/10 16:21:14;;;;;;;7.78;4.63;;;13.10;61.20;;;;;;4930430;29;20024;-78
2023/02/10 16:23:41;;;;;;;22.23;13.75;;;13.00;62.00;;;;;;4914240;29;20060;-78
2023/02/10 16:26:08;;;;;;;23.88;13.95;;;13.00;62.40;;;;;;4919007;29;20050;-78
2023/02/10 16:28:34;;;;;;;20.73;12.73;;;13.00;62.30;;;;;;4919440;29;20020;-78
2023/02/10 16:31:00;;;;;;;11.48;5.20;;;13.00;62.50;;;;;;4917650;29;20047;-78
2023/02/10 16:33:25;;;;;;;10.68;4.35;;;12.90;61.90;;;;;;4912415;29;20039;-78
2023/02/10 16:35:52;;;;;;;12.75;7.22;;;12.80;62.10;;;;;;4918098;29;20096;-78
2023/02/10 16:38:18;;;;;;;11.98;7.50;;;12.80;62.60;;;;;;4911512;29;20044;-77
2023/02/10 16:40:44;;;;;;;14.45;9.93;;;12.80;62.80;;;;;;4918867;29;20024;-78
2023/02/10 16:43:10;;;;;;;14.25;9.25;;;12.80;62.50;;;;;;4917343;29;20037;-78
2023/02/10 16:45:37;;;;;;;13.57;8.23;;;12.80;62.90;;;;;;4913398;29;20039;-77
2023/02/10 16:48:03;;;;;;;12.02;8.23;;;12.80;62.90;;;;;;4918369;29;20060;-77
2023/02/10 16:50:41;;;;;;;16.30;11.77;;;12.70;63.20;;;;;;4918562;29;20020;-78
2023/02/10 16:53:08;;;;;;;10.00;8.65;;;12.70;63.40;;;;;;4913709;29;20037;-77
2023/02/10 16:55:35;;;;;;;13.77;8.80;;;12.70;63.60;;;;;;4913793;29;20496;-77
2023/02/10 16:58:01;;;;;;;14.00;9.23;;;12.60;63.40;;;;;;4926616;29;20099;-77
2023/02/10 17:00:27;;;;;;;13.63;8.40;;;12.60;64.00;;;;;;4915942;29;20074;-77
2023/02/10 17:02:54;;;;;;;17.30;9.07;;;12.60;64.20;;;;;;4911680;29;20044;-77
2023/02/10 17:05:21;;;;;;;14.45;8.77;;;12.50;64.50;;;;;;4918390;29;20032;-77
2023/02/10 17:07:47;;;;;;;18.13;9.43;;;12.40;64.80;;;;;;4915423;29;20080;-77
2023/02/10 17:10:25;;;;;;;20.23;11.90;;;12.40;64.90;;;;;;4918475;29;20021;-77
2023/02/10 17:12:51;;;;;;;18.40;10.55;;;12.30;65.30;;;;;;4926064;29;20059;-77
2023/02/10 17:15:17;;;;;;;20.85;9.27;;;12.30;65.50;;;;;;4917130;29;20051;-77
2023/02/10 17:17:43;;;;;;;22.08;13.00;;;12.20;65.80;;;;;;4909414;29;20044;-77
2023/02/10 17:20:20;;;;;;;29.45;13.32;;;12.20;65.80;;;;;;4918708;29;20395;-77
2023/02/10 17:22:46;;;;;;;27.30;14.55;;;12.20;65.60;;;;;;4917319;29;20120;-77
2023/02/10 17:25:12;;;;;;;27.13;13.25;;;12.20;65.90;;;;;;4917581;29;20029;-77
2023/02/10 17:27:38;;;;;;;28.23;13.93;;;12.20;66.10;;;;;;4919328;29;20114;-77
2023/02/10 17:30:25;;;;;;;27.70;14.85;;;12.20;66.30;;;;;;4919598;29;20024;-78
2023/02/10 17:32:51;;;;;;;30.63;13.48;;;12.20;66.00;;;;;;4919513;29;20091;-76
2023/02/10 17:35:19;;;;;;;19.10;12.50;;;12.20;66.00;;;;;;4916082;29;20062;-77
2023/02/10 17:37:46;;;;;;;27.75;11.45;;;12.20;66.70;;;;;;4915927;29;20028;-82
2023/02/10 17:40:31;;;;;;;23.10;11.45;;;12.20;66.70;;;;;;4920912;29;20389;-79
2023/02/10 17:42:56;;;;;;;33.70;13.48;;;12.10;66.60;;;;;;4917396;29;20040;-79
2023/02/10 17:45:22;;;;;;;25.80;13.50;;;12.10;67.00;;;;;;4903443;29;20028;-79
2023/02/10 17:47:48;;;;;;;24.75;12.00;;;12.10;66.90;;;;;;4905230;29;20541;-79
2023/02/10 17:50:15;;;;;;;18.80;10.18;;;11.90;66.50;;;;;;4922394;29;20055;-79
2023/02/10 17:52:51;;;;;;;19.35;9.98;;;11.90;66.90;;;;;;4907913;29;20100;-78
2023/02/10 17:55:17;;;;;;;20.90;10.32;;;11.80;66.90;;;;;;4911916;29;20087;-79
2023/02/10 17:57:43;;;;;;;23.30;9.82;;;11.70;67.20;;;;;;4921215;29;20032;-78
2023/02/10 18:00:10;;;;;;;16.85;9.30;;;11.60;67.50;;;;;;4916022;29;20388;-77
2023/02/10 18:02:36;;;;;;;19.40;9.63;;;11.60;67.30;;;;;;4911363;29;20378;-76
2023/02/10 18:05:01;;;;;;;19.15;9.75;;;11.50;67.60;;;;;;4914937;29;20040;-73
2023/02/10 18:07:27;;;;;;;17.70;8.43;;;11.50;67.70;;;;;;4922225;29;20028;-82
2023/02/10 18:10:02;;;;;;;17.08;8.55;;;11.50;68.00;;;;;;4912907;29;20024;-77
2023/02/10 18:12:28;;;;;;;15.00;8.57;;;11.40;68.00;;;;;;4908080;29;20055;-78
2023/02/10 18:14:53;;;;;;;15.95;8.57;;;11.40;68.20;;;;;;4917760;29;20028;-77
2023/02/10 18:17:20;;;;;;;17.25;9.13;;;11.40;68.20;;;;;;4923652;29;20039;-77
2023/02/10 18:19:47;;;;;;;18.67;9.50;;;11.40;68.20;;;;;;4922417;29;20024;-76
2023/02/10 18:22:13;;;;;;;22.10;12.18;;;11.30;68.30;;;;;;4921579;29;20515;-76
2023/02/10 18:24:38;;;;;;;26.10;12.90;;;11.30;68.40;;;;;;4920548;29;20032;-76
2023/02/10 18:27:07;;;;;;;19.98;11.32;;;11.30;68.30;;;;;;4920764;29;20064;-77
2023/02/10 18:29:32;;;;;;;27.33;14.10;;;11.40;68.30;;;;;;4920537;29;20405;-77
2023/02/10 18:31:58;;;;;;;19.55;11.52;;;11.40;68.50;;;;;;4913314;29;20067;-78